sensor_id;sensor_type;location;lat;lon;timestamp;pressure;altitude;pressure_sealevel;temperature;humidity
79481;BME280;68944;48.262;14.208;2024-03-23T00:53:58;97808.94;;;9.45;100.00
79481;BME280;68944;48.262;14.208;2024-03-23T00:56:23;97806.22;;;9.52;100.00
79481;BME280;68944;48.262;14.208;2024-03-23T00:58:49;97804.47;;;9.46;100.00
79481;BME280;68944;48.262;14.208;2024-03-23T01:01:15;97799.66;;;9.24;100.00
79481;BME280;68944;48.262;14.208;2024-03-23T01:03:41;97787.59;;;9.28;100.00
79481;BME280;68944;48.262;14.208;2024-03-23T01:06:06;97788.03;;;9.43;100.00
79481;BME280;68944;48.262;14.208;2024-03-23T01:08:32;97792.84;;;9.47;100.00
79481;BME280;68944;48.262;14.208;2024-03-23T01:10:59;97782.63;;;9.50;100.00
79481;BME280;68944;48.262;14.208;2024-03-23T01:13:27;97778.41;;;9.61;100.00
79481;BME280;68944;48.262;14.208;2024-03-23T01:15:53;97772.78;;;9.70;100.00
79481;BME280;68944;48.262;14.208;2024-03-23T01:18:19;97770.81;;;9.65;100.00
79481;BME280;68944;48.262;14.208;2024-03-23T01:20:45;97773.75;;;9.44;100.00
79481;BME280;68944;48.262;14.208;2024-03-23T01:23:11;97771.13;;;9.44;100.00
79481;BME280;68944;48.262;14.208;2024-03-23T01:25:37;97769.38;;;9.38;100.00
79481;BME280;68944;48.262;14.208;2024-03-23T01:28:03;97766.88;;;9.55;100.00
79481;BME280;68944;48.262;14.208;2024-03-23T01:30:28;97765.63;;;9.58;100.00
79481;BME280;68944;48.262;14.208;2024-03-23T01:32:54;97759.22;;;9.66;100.00
79481;BME280;68944;48.262;14.208;2024-03-23T01:35:23;97755.44;;;9.86;100.00
79481;BME280;68944;48.262;14.208;2024-03-23T01:37:48;97753.50;;;9.93;100.00
79481;BME280;68944;48.262;14.208;2024-03-23T01:40:14;97749.31;;;9.85;100.00
79481;BME280;68944;48.262;14.208;2024-03-23T01:42:44;97750.22;;;9.67;100.00
79481;BME280;68944;48.262;14.208;2024-03-23T01:45:20;97738.53;;;9.75;100.00
79481;BME280;68944;48.262;14.208;2024-03-23T01:47:46;97733.81;;;9.77;100.00
79481;BME280;68944;48.262;14.208;2024-03-23T01:50:11;97726.31;;;9.74;100.00
79481;BME280;68944;48.262;14.208;2024-03-23T01:52:37;97728.63;;;9.82;100.00
79481;BME280;68944;48.262;14.208;2024-03-23T01:55:02;97726.91;;;9.76;100.00
79481;BME280;68944;48.262;14.208;2024-03-23T01:57:28;97716.34;;;9.76;100.00
79481;BME280;68944;48.262;14.208;2024-03-23T01:59:54;97719.31;;;9.79;100.00
79481;BME280;68944;48.262;14.208;2024-03-23T02:02:25;97717.25;;;9.82;100.00
79481;BME280;68944;48.262;14.208;2024-03-23T02:04:51;97714.38;;;9.83;100.00
79481;BME280;68944;48.262;14.208;2024-03-23T02:07:17;97713.59;;;9.83;100.00
79481;BME280;68944;48.262;14.208;2024-03-23T02:09:43;97707.81;;;9.86;100.00
79481;BME280;68944;48.262;14.208;2024-03-23T02:12:09;97709.75;;;9.78;100.00
79481;BME280;68944;48.262;14.208;2024-03-23T02:14:35;97707.34;;;9.65;100.00
79481;BME280;68944;48.262;14.208;2024-03-23T02:17:01;97706.72;;;9.27;100.00
79481;BME280;68944;48.262;14.208;2024-03-23T02:19:27;97711.09;;;9.33;100.00
79481;BME280;68944;48.262;14.208;2024-03-23T02:21:52;97717.09;;;9.09;100.00
79481;BME280;68944;48.262;14.208;2024-03-23T02:24:18;97712.28;;;9.06;100.00
79481;BME280;68944;48.262;14.208;2024-03-23T02:26:43;97708.97;;;9.11;100.00
79481;BME280;68944;48.262;14.208;2024-03-23T02:29:09;97707.53;;;9.27;100.00
79481;BME280;68944;48.262;14.208;2024-03-23T02:31:35;97712.88;;;9.08;100.00
79481;BME280;68944;48.262;14.208;2024-03-23T02:34:01;97716.13;;;9.23;100.00
79481;BME280;68944;48.262;14.208;2024-03-23T02:36:26;97711.38;;;9.13;100.00
79481;BME280;68944;48.262;14.208;2024-03-23T02:38:52;97707.59;;;9.20;100.00
79481;BME280;68944;48.262;14.208;2024-03-23T02:41:18;97708.41;;;9.21;100.00
79481;BME280;68944;48.262;14.208;2024-03-23T02:43:51;97700.28;;;9.23;100.00
79481;BME280;68944;48.262;14.208;2024-03-23T02:46:16;97700.72;;;9.19;100.00
79481;BME280;68944;48.262;14.208;2024-03-23T02:48:42;97687.94;;;9.16;100.00
79481;BME280;68944;48.262;14.208;2024-03-23T02:51:08;97688.06;;;9.21;100.00
79481;BME280;68944;48.262;14.208;2024-03-23T02:53:35;97692.34;;;9.23;100.00
79481;BME280;68944;48.262;14.208;2024-03-23T02:56:00;97688.06;;;8.79;100.00
79481;BME280;68944;48.262;14.208;2024-03-23T02:58:26;97678.50;;;8.78;100.00
79481;BME280;68944;48.262;14.208;2024-03-23T03:00:52;97675.81;;;8.96;100.00
79481;BME280;68944;48.262;14.208;2024-03-23T03:03:17;97664.78;;;8.99;100.00
79481;BME280;68944;48.262;14.208;2024-03-23T03:05:43;97669.16;;;8.94;100.00
79481;BME280;68944;48.262;14.208;2024-03-23T03:08:08;97671.44;;;8.90;100.00
79481;BME280;68944;48.262;14.208;2024-03-23T03:10:35;97672.88;;;8.74;100.00
79481;BME280;68944;48.262;14.208;2024-03-23T03:13:02;97671.50;;;8.71;100.00
79481;BME280;68944;48.262;14.208;2024-03-23T03:15:27;97668.13;;;8.45;100.00
79481;BME280;68944;48.262;14.208;2024-03-23T03:17:53;97689.25;;;8.26;100.00
79481;BME280;68944;48.262;14.208;2024-03-23T03:20:19;97682.13;;;8.08;100.00
79481;BME280;68944;48.262;14.208;2024-03-23T03:22:44;97688.28;;;8.02;100.00
79481;BME280;68944;48.262;14.208;2024-03-23T03:25:10;97695.78;;;7.79;100.00
79481;BME280;68944;48.262;14.208;2024-03-23T03:27:35;97692.84;;;7.69;100.00
79481;BME280;68944;48.262;14.208;2024-03-23T03:30:01;97694.72;;;7.61;100.00
79481;BME280;68944;48.262;14.208;2024-03-23T03:32:32;97687.22;;;7.84;100.00
79481;BME280;68944;48.262;14.208;2024-03-23T03:34:57;97687.78;;;7.67;100.00
79481;BME280;68944;48.262;14.208;2024-03-23T03:37:23;97687.19;;;7.65;100.00
79481;BME280;68944;48.262;14.208;2024-03-23T03:39:49;97670.59;;;7.83;100.00
79481;BME280;68944;48.262;14.208;2024-03-23T03:42:14;97669.22;;;7.55;100.00
79481;BME280;68944;48.262;14.208;2024-03-23T03:44:40;97658.81;;;7.60;100.00
79481;BME280;68944;48.262;14.208;2024-03-23T03:47:06;97660.56;;;7.48;100.00
79481;BME280;68944;48.262;14.208;2024-03-23T03:49:32;97664.09;;;7.60;100.00
79481;BME280;68944;48.262;14.208;2024-03-23T03:51:57;97651.75;;;7.80;100.00
79481;BME280;68944;48.262;14.208;2024-03-23T03:54:23;97650.97;;;7.98;100.00
79481;BME280;68944;48.262;14.208;2024-03-23T03:56:48;97648.69;;;7.83;100.00
79481;BME280;68944;48.262;14.208;2024-03-23T03:59:15;97652.34;;;7.82;100.00
79481;BME280;68944;48.262;14.208;2024-03-23T04:01:40;97646.56;;;7.92;100.00
79481;BME280;68944;48.262;14.208;2024-03-23T04:04:06;97627.03;;;8.00;100.00
79481;BME280;68944;48.262;14.208;2024-03-23T04:06:32;97629.44;;;8.01;100.00
79481;BME280;68944;48.262;14.208;2024-03-23T04:08:58;97615.88;;;7.97;100.00
79481;BME280;68944;48.262;14.208;2024-03-23T04:11:24;97629.34;;;7.70;100.00
79481;BME280;68944;48.262;14.208;2024-03-23T04:13:49;97626.69;;;7.70;100.00
79481;BME280;68944;48.262;14.208;2024-03-23T04:16:29;97625.63;;;7.78;100.00
79481;BME280;68944;48.262;14.208;2024-03-23T04:18:56;97624.00;;;7.77;100.00
79481;BME280;68944;48.262;14.208;2024-03-23T04:21:22;97618.44;;;7.67;100.00
79481;BME280;68944;48.262;14.208;2024-03-23T04:23:48;97620.84;;;7.68;100.00
79481;BME280;68944;48.262;14.208;2024-03-23T04:26:13;97620.28;;;7.40;100.00
79481;BME280;68944;48.262;14.208;2024-03-23T04:28:39;97617.47;;;7.35;100.00
79481;BME280;68944;48.262;14.208;2024-03-23T04:31:05;97614.66;;;7.37;100.00
79481;BME280;68944;48.262;14.208;2024-03-23T04:33:30;97608.72;;;7.42;100.00
79481;BME280;68944;48.262;14.208;2024-03-23T04:35:56;97613.53;;;7.45;100.00
79481;BME280;68944;48.262;14.208;2024-03-23T04:38:22;97610.84;;;7.07;100.00
79481;BME280;68944;48.262;14.208;2024-03-23T04:40:58;97617.06;;;7.13;100.00
79481;BME280;68944;48.262;14.208;2024-03-23T04:43:24;97602.22;;;7.19;100.00
79481;BME280;68944;48.262;14.208;2024-03-23T04:45:49;97608.56;;;7.36;100.00
79481;BME280;68944;48.262;14.208;2024-03-23T04:48:15;97601.19;;;7.45;100.00
79481;BME280;68944;48.262;14.208;2024-03-23T04:50:40;97595.75;;;7.40;100.00
79481;BME280;68944;48.262;14.208;2024-03-23T04:53:06;97599.91;;;7.03;100.00
79481;BME280;68944;48.262;14.208;2024-03-23T04:55:32;97595.91;;;6.94;100.00
79481;BME280;68944;48.262;14.208;2024-03-23T04:57:58;97596.38;;;6.84;100.00
79481;BME280;68944;48.262;14.208;2024-03-23T05:00:23;97600.03;;;6.83;100.00
79481;BME280;68944;48.262;14.208;2024-03-23T05:02:50;97601.41;;;6.92;100.00
79481;BME280;68944;48.262;14.208;2024-03-23T05:05:16;97589.25;;;7.17;100.00
79481;BME280;68944;48.262;14.208;2024-03-23T05:07:41;97595.28;;;6.99;100.00
79481;BME280;68944;48.262;14.208;2024-03-23T05:10:09;97588.03;;;7.20;100.00
79481;BME280;68944;48.262;14.208;2024-03-23T05:12:37;97581.16;;;6.93;100.00
79481;BME280;68944;48.262;14.208;2024-03-23T05:15:06;97587.09;;;6.81;100.00
79481;BME280;68944;48.262;14.208;2024-03-23T05:17:35;97585.75;;;6.72;100.00
79481;BME280;68944;48.262;14.208;2024-03-23T05:20:01;97592.56;;;6.80;100.00
79481;BME280;68944;48.262;14.208;2024-03-23T05:22:29;97584.75;;;6.66;100.00
79481;BME280;68944;48.262;14.208;2024-03-23T05:24:54;97587.47;;;6.85;100.00
79481;BME280;68944;48.262;14.208;2024-03-23T05:27:20;97584.88;;;6.78;100.00
79481;BME280;68944;48.262;14.208;2024-03-23T05:29:45;97588.00;;;6.94;100.00
79481;BME280;68944;48.262;14.208;2024-03-23T05:32:12;97572.38;;;6.99;100.00
79481;BME280;68944;48.262;14.208;2024-03-23T05:34:38;97575.16;;;6.79;100.00
79481;BME280;68944;48.262;14.208;2024-03-23T05:37:03;97576.47;;;6.63;100.00
79481;BME280;68944;48.262;14.208;2024-03-23T05:39:29;97574.63;;;6.70;100.00
79481;BME280;68944;48.262;14.208;2024-03-23T05:41:55;97571.97;;;7.02;100.00
79481;BME280;68944;48.262;14.208;2024-03-23T05:44:20;97569.47;;;7.08;100.00
79481;BME280;68944;48.262;14.208;2024-03-23T05:46:46;97565.38;;;7.12;100.00
79481;BME280;68944;48.262;14.208;2024-03-23T05:49:15;97571.47;;;7.12;100.00
79481;BME280;68944;48.262;14.208;2024-03-23T05:51:41;97564.09;;;7.21;100.00
79481;BME280;68944;48.262;14.208;2024-03-23T05:54:07;97573.66;;;7.15;100.00
79481;BME280;68944;48.262;14.208;2024-03-23T05:56:32;97575.13;;;7.11;100.00
79481;BME280;68944;48.262;14.208;2024-03-23T05:58:58;97572.31;;;7.32;100.00
79481;BME280;68944;48.262;14.208;2024-03-23T06:01:23;97570.56;;;7.44;100.00
79481;BME280;68944;48.262;14.208;2024-03-23T06:03:49;97555.59;;;7.63;100.00
79481;BME280;68944;48.262;14.208;2024-03-23T06:06:14;97550.47;;;7.88;100.00
79481;BME280;68944;48.262;14.208;2024-03-23T06:08:40;97548.09;;;7.98;100.00
79481;BME280;68944;48.262;14.208;2024-03-23T06:11:06;97543.88;;;7.78;100.00
79481;BME280;68944;48.262;14.208;2024-03-23T06:13:32;97532.00;;;7.88;100.00
79481;BME280;68944;48.262;14.208;2024-03-23T06:16:02;97533.16;;;7.92;100.00
79481;BME280;68944;48.262;14.208;2024-03-23T06:18:28;97527.47;;;8.07;100.00
79481;BME280;68944;48.262;14.208;2024-03-23T06:20:53;97537.44;;;8.24;100.00
79481;BME280;68944;48.262;14.208;2024-03-23T06:23:19;97529.41;;;8.30;100.00
79481;BME280;68944;48.262;14.208;2024-03-23T06:25:46;97524.13;;;8.30;100.00
79481;BME280;68944;48.262;14.208;2024-03-23T06:28:13;97529.75;;;8.53;100.00
79481;BME280;68944;48.262;14.208;2024-03-23T06:30:39;97524.22;;;8.54;100.00
79481;BME280;68944;48.262;14.208;2024-03-23T06:33:05;97524.63;;;8.70;100.00
79481;BME280;68944;48.262;14.208;2024-03-23T06:35:33;97512.69;;;8.80;100.00
79481;BME280;68944;48.262;14.208;2024-03-23T06:37:58;97511.88;;;8.79;100.00
79481;BME280;68944;48.262;14.208;2024-03-23T06:40:24;97510.31;;;8.90;100.00
79481;BME280;68944;48.262;14.208;2024-03-23T06:42:50;97510.97;;;8.97;100.00
79481;BME280;68944;48.262;14.208;2024-03-23T06:45:16;97514.88;;;9.07;100.00
79481;BME280;68944;48.262;14.208;2024-03-23T06:47:42;97507.53;;;9.21;100.00
79481;BME280;68944;48.262;14.208;2024-03-23T06:50:08;97494.19;;;9.16;100.00
79481;BME280;68944;48.262;14.208;2024-03-23T06:52:35;97493.63;;;9.26;100.00
79481;BME280;68944;48.262;14.208;2024-03-23T06:55:01;97495.94;;;9.34;100.00
79481;BME280;68944;48.262;14.208;2024-03-23T06:57:27;97479.72;;;9.42;100.00
79481;BME280;68944;48.262;14.208;2024-03-23T06:59:52;97476.25;;;9.54;100.00
79481;BME280;68944;48.262;14.208;2024-03-23T07:02:18;97466.91;;;9.63;100.00
79481;BME280;68944;48.262;14.208;2024-03-23T07:04:44;97471.34;;;9.75;100.00
79481;BME280;68944;48.262;14.208;2024-03-23T07:07:09;97456.41;;;9.81;100.00
79481;BME280;68944;48.262;14.208;2024-03-23T07:09:35;97456.81;;;9.89;100.00
79481;BME280;68944;48.262;14.208;2024-03-23T07:12:00;97462.06;;;10.01;100.00
79481;BME280;68944;48.262;14.208;2024-03-23T07:14:26;97465.03;;;10.05;100.00
79481;BME280;68944;48.262;14.208;2024-03-23T07:16:51;97448.84;;;10.19;100.00
79481;BME280;68944;48.262;14.208;2024-03-23T07:19:17;97447.41;;;10.28;100.00
79481;BME280;68944;48.262;14.208;2024-03-23T07:21:44;97438.50;;;10.34;100.00
79481;BME280;68944;48.262;14.208;2024-03-23T07:24:10;97426.56;;;10.49;100.00
79481;BME280;68944;48.262;14.208;2024-03-23T07:26:36;97433.09;;;10.58;100.00
79481;BME280;68944;48.262;14.208;2024-03-23T07:29:01;97427.34;;;10.62;100.00
79481;BME280;68944;48.262;14.208;2024-03-23T07:31:27;97422.16;;;10.72;100.00
79481;BME280;68944;48.262;14.208;2024-03-23T07:33:53;97419.03;;;10.75;100.00
79481;BME280;68944;48.262;14.208;2024-03-23T07:36:18;97418.94;;;10.87;100.00
79481;BME280;68944;48.262;14.208;2024-03-23T07:38:44;97401.88;;;11.00;100.00
79481;BME280;68944;48.262;14.208;2024-03-23T07:41:15;97409.00;;;11.17;100.00
79481;BME280;68944;48.262;14.208;2024-03-23T07:43:45;97406.78;;;11.31;100.00
79481;BME280;68944;48.262;14.208;2024-03-23T07:46:11;97394.66;;;11.41;100.00
79481;BME280;68944;48.262;14.208;2024-03-23T07:48:38;97388.19;;;11.54;100.00
79481;BME280;68944;48.262;14.208;2024-03-23T07:51:10;97385.09;;;11.62;100.00
79481;BME280;68944;48.262;14.208;2024-03-23T07:53:37;97388.34;;;11.69;100.00
79481;BME280;68944;48.262;14.208;2024-03-23T07:56:07;97384.00;;;11.86;100.00
79481;BME280;68944;48.262;14.208;2024-03-23T07:58:34;97381.72;;;12.00;100.00
79481;BME280;68944;48.262;14.208;2024-03-23T08:01:04;97375.94;;;12.08;100.00
79481;BME280;68944;48.262;14.208;2024-03-23T08:03:30;97364.44;;;12.25;100.00
79481;BME280;68944;48.262;14.208;2024-03-23T08:05:56;97355.75;;;12.35;100.00
79481;BME280;68944;48.262;14.208;2024-03-23T08:08:21;97347.03;;;12.39;100.00
79481;BME280;68944;48.262;14.208;2024-03-23T08:10:51;97331.41;;;12.48;100.00
79481;BME280;68944;48.262;14.208;2024-03-23T08:13:17;97337.06;;;12.62;100.00
79481;BME280;68944;48.262;14.208;2024-03-23T08:15:44;97336.31;;;12.72;100.00
79481;BME280;68944;48.262;14.208;2024-03-23T08:18:11;97325.22;;;12.86;100.00
79481;BME280;68944;48.262;14.208;2024-03-23T08:20:37;97312.75;;;12.97;100.00
79481;BME280;68944;48.262;14.208;2024-03-23T08:23:05;97303.75;;;13.03;100.00
79481;BME280;68944;48.262;14.208;2024-03-23T08:25:31;97300.06;;;13.10;100.00
79481;BME280;68944;48.262;14.208;2024-03-23T08:27:57;97293.16;;;13.14;100.00
79481;BME280;68944;48.262;14.208;2024-03-23T08:30:23;97285.72;;;13.16;100.00
79481;BME280;68944;48.262;14.208;2024-03-23T08:32:48;97279.06;;;13.29;100.00
79481;BME280;68944;48.262;14.208;2024-03-23T08:35:14;97275.91;;;13.37;100.00
79481;BME280;68944;48.262;14.208;2024-03-23T08:37:40;97272.44;;;13.47;100.00
79481;BME280;68944;48.262;14.208;2024-03-23T08:40:06;97268.53;;;13.60;100.00
79481;BME280;68944;48.262;14.208;2024-03-23T08:42:31;97265.59;;;13.67;100.00
79481;BME280;68944;48.262;14.208;2024-03-23T08:44:57;97252.28;;;13.77;100.00
79481;BME280;68944;48.262;14.208;2024-03-23T08:47:22;97247.47;;;13.85;100.00
79481;BME280;68944;48.262;14.208;2024-03-23T08:49:48;97248.53;;;13.94;100.00
79481;BME280;68944;48.262;14.208;2024-03-23T08:52:15;97243.75;;;14.07;100.00
79481;BME280;68944;48.262;14.208;2024-03-23T08:54:41;97241.84;;;14.18;100.00
79481;BME280;68944;48.262;14.208;2024-03-23T08:57:06;97230.34;;;14.33;100.00
79481;BME280;68944;48.262;14.208;2024-03-23T08:59:32;97229.22;;;14.50;100.00
79481;BME280;68944;48.262;14.208;2024-03-23T09:01:58;97223.31;;;14.63;100.00
79481;BME280;68944;48.262;14.208;2024-03-23T09:04:23;97222.75;;;14.72;100.00
79481;BME280;68944;48.262;14.208;2024-03-23T09:06:49;97222.69;;;14.87;100.00
79481;BME280;68944;48.262;14.208;2024-03-23T09:09:15;97217.88;;;14.95;100.00
79481;BME280;68944;48.262;14.208;2024-03-23T09:11:40;97212.97;;;15.07;100.00
79481;BME280;68944;48.262;14.208;2024-03-23T09:14:06;97213.94;;;15.22;100.00
79481;BME280;68944;48.262;14.208;2024-03-23T09:16:31;97219.50;;;15.31;100.00
79481;BME280;68944;48.262;14.208;2024-03-23T09:18:57;97223.13;;;15.45;100.00
79481;BME280;68944;48.262;14.208;2024-03-23T09:21:23;97214.34;;;15.40;100.00
79481;BME280;68944;48.262;14.208;2024-03-23T09:23:48;97212.09;;;15.57;100.00
79481;BME280;68944;48.262;14.208;2024-03-23T09:26:14;97218.94;;;15.69;100.00
79481;BME280;68944;48.262;14.208;2024-03-23T09:28:40;97211.91;;;15.78;100.00
79481;BME280;68944;48.262;14.208;2024-03-23T09:31:07;97209.06;;;15.99;100.00
79481;BME280;68944;48.262;14.208;2024-03-23T09:33:34;97206.81;;;16.12;100.00
79481;BME280;68944;48.262;14.208;2024-03-23T09:36:03;97223.13;;;16.35;100.00
79481;BME280;68944;48.262;14.208;2024-03-23T09:38:29;97207.94;;;16.55;100.00
79481;BME280;68944;48.262;14.208;2024-03-23T09:40:56;97213.13;;;16.65;100.00
79481;BME280;68944;48.262;14.208;2024-03-23T09:43:22;97216.19;;;16.34;100.00
79481;BME280;68944;48.262;14.208;2024-03-23T09:45:49;97219.31;;;16.85;100.00
79481;BME280;68944;48.262;14.208;2024-03-23T09:48:15;97225.66;;;16.70;100.00
79481;BME280;68944;48.262;14.208;2024-03-23T09:50:41;97227.94;;;17.01;100.00
79481;BME280;68944;48.262;14.208;2024-03-23T09:53:08;97241.38;;;16.52;100.00
79481;BME280;68944;48.262;14.208;2024-03-23T09:55:34;97232.09;;;16.69;100.00
79481;BME280;68944;48.262;14.208;2024-03-23T09:58:03;97232.66;;;16.66;100.00
79481;BME280;68944;48.262;14.208;2024-03-23T10:00:31;97241.38;;;16.27;100.00
79481;BME280;68944;48.262;14.208;2024-03-23T10:02:58;97252.59;;;16.30;100.00
79481;BME280;68944;48.262;14.208;2024-03-23T10:05:28;97239.00;;;16.26;100.00
79481;BME280;68944;48.262;14.208;2024-03-23T10:07:54;97266.16;;;16.09;100.00
79481;BME280;68944;48.262;14.208;2024-03-23T10:10:19;97276.34;;;16.07;100.00
79481;BME280;68944;48.262;14.208;2024-03-23T10:12:50;97275.16;;;15.83;100.00
79481;BME280;68944;48.262;14.208;2024-03-23T10:15:24;97292.66;;;15.65;100.00
79481;BME280;68944;48.262;14.208;2024-03-23T10:17:51;97290.34;;;15.53;100.00
79481;BME280;68944;48.262;14.208;2024-03-23T10:20:21;97265.06;;;15.40;100.00
79481;BME280;68944;48.262;14.208;2024-03-23T10:22:50;97325.63;;;14.83;100.00
79481;BME280;68944;48.262;14.208;2024-03-23T10:25:23;97349.91;;;14.66;100.00
79481;BME280;68944;48.262;14.208;2024-03-23T10:27:59;97343.31;;;14.37;100.00
79481;BME280;68944;48.262;14.208;2024-03-23T10:30:25;97398.22;;;14.28;100.00
79481;BME280;68944;48.262;14.208;2024-03-23T10:33:13;97398.00;;;13.39;100.00
79481;BME280;68944;48.262;14.208;2024-03-23T10:35:40;97420.16;;;12.96;100.00
79481;BME280;68944;48.262;14.208;2024-03-23T10:38:07;97431.47;;;12.76;100.00
79481;BME280;68944;48.262;14.208;2024-03-23T10:40:36;97428.13;;;12.52;100.00
79481;BME280;68944;48.262;14.208;2024-03-23T10:43:03;97439.59;;;12.58;100.00
79481;BME280;68944;48.262;14.208;2024-03-23T10:45:30;97463.78;;;12.29;100.00
79481;BME280;68944;48.262;14.208;2024-03-23T10:47:56;97444.91;;;12.25;100.00
79481;BME280;68944;48.262;14.208;2024-03-23T10:50:22;97465.34;;;12.25;100.00
79481;BME280;68944;48.262;14.208;2024-03-23T10:52:48;97455.69;;;12.13;100.00
79481;BME280;68944;48.262;14.208;2024-03-23T10:55:16;97443.59;;;12.00;100.00
79481;BME280;68944;48.262;14.208;2024-03-23T10:57:50;97438.16;;;12.12;100.00
79481;BME280;68944;48.262;14.208;2024-03-23T11:00:17;97451.31;;;12.29;100.00
79481;BME280;68944;48.262;14.208;2024-03-23T11:02:43;97427.50;;;12.40;100.00
79481;BME280;68944;48.262;14.208;2024-03-23T11:07:53;97453.53;;;12.38;100.00
79481;BME280;68944;48.262;14.208;2024-03-23T11:12:52;97423.75;;;12.08;100.00
79481;BME280;68944;48.262;14.208;2024-03-23T11:15:19;97441.16;;;11.93;100.00
79481;BME280;68944;48.262;14.208;2024-03-23T11:18:04;97452.28;;;12.18;100.00
79481;BME280;68944;48.262;14.208;2024-03-23T11:20:32;97452.31;;;11.95;100.00
79481;BME280;68944;48.262;14.208;2024-03-23T11:22:58;97438.38;;;11.83;100.00
79481;BME280;68944;48.262;14.208;2024-03-23T11:25:26;97462.47;;;11.54;100.00
79481;BME280;68944;48.262;14.208;2024-03-23T11:27:56;97462.50;;;11.14;100.00
79481;BME280;68944;48.262;14.208;2024-03-23T11:30:24;97487.03;;;10.87;100.00
79481;BME280;68944;48.262;14.208;2024-03-23T11:32:54;97474.09;;;10.56;100.00
79481;BME280;68944;48.262;14.208;2024-03-23T11:35:34;97479.28;;;10.33;100.00
79481;BME280;68944;48.262;14.208;2024-03-23T11:38:15;97520.03;;;10.32;100.00
79481;BME280;68944;48.262;14.208;2024-03-23T11:40:42;97484.56;;;10.33;100.00
79481;BME280;68944;48.262;14.208;2024-03-23T11:43:10;97482.00;;;10.39;100.00
79481;BME280;68944;48.262;14.208;2024-03-23T11:45:46;97495.16;;;10.33;100.00
79481;BME280;68944;48.262;14.208;2024-03-23T11:48:13;97497.22;;;10.14;100.00
79481;BME280;68944;48.262;14.208;2024-03-23T11:50:41;97508.78;;;9.96;100.00
79481;BME280;68944;48.262;14.208;2024-03-23T11:56:03;97506.41;;;9.82;100.00
79481;BME280;68944;48.262;14.208;2024-03-23T11:58:28;97534.28;;;9.73;100.00
79481;BME280;68944;48.262;14.208;2024-03-23T12:01:02;97538.75;;;9.72;100.00
79481;BME280;68944;48.262;14.208;2024-03-23T12:03:29;97552.22;;;9.71;100.00
79481;BME280;68944;48.262;14.208;2024-03-23T12:05:57;97545.78;;;9.66;100.00
79481;BME280;68944;48.262;14.208;2024-03-23T12:08:24;97557.28;;;9.60;100.00
79481;BME280;68944;48.262;14.208;2024-03-23T12:13:37;97550.16;;;9.49;100.00
79481;BME280;68944;48.262;14.208;2024-03-23T12:16:19;97554.75;;;9.53;100.00
79481;BME280;68944;48.262;14.208;2024-03-23T12:18:50;97545.81;;;9.42;100.00
79481;BME280;68944;48.262;14.208;2024-03-23T12:21:19;97545.59;;;9.32;100.00
79481;BME280;68944;48.262;14.208;2024-03-23T12:23:44;97538.69;;;9.31;100.00
79481;BME280;68944;48.262;14.208;2024-03-23T12:26:12;97546.38;;;9.32;100.00
79481;BME280;68944;48.262;14.208;2024-03-23T12:28:38;97541.66;;;9.35;100.00
79481;BME280;68944;48.262;14.208;2024-03-23T12:31:04;97545.00;;;9.30;100.00
79481;BME280;68944;48.262;14.208;2024-03-23T12:33:30;97534.91;;;9.39;100.00
79481;BME280;68944;48.262;14.208;2024-03-23T12:35:56;97528.09;;;9.43;100.00
79481;BME280;68944;48.262;14.208;2024-03-23T12:38:22;97553.63;;;9.37;100.00
79481;BME280;68944;48.262;14.208;2024-03-23T12:40:48;97560.66;;;9.43;100.00
79481;BME280;68944;48.262;14.208;2024-03-23T12:43:14;97555.25;;;9.38;100.00
79481;BME280;68944;48.262;14.208;2024-03-23T12:45:39;97567.31;;;9.34;100.00
79481;BME280;68944;48.262;14.208;2024-03-23T12:48:05;97580.19;;;9.42;100.00
79481;BME280;68944;48.262;14.208;2024-03-23T12:50:31;97575.00;;;9.36;100.00
79481;BME280;68944;48.262;14.208;2024-03-23T12:52:57;97593.94;;;9.20;100.00
79481;BME280;68944;48.262;14.208;2024-03-23T12:55:22;97631.16;;;8.64;100.00
79481;BME280;68944;48.262;14.208;2024-03-23T12:57:48;97656.25;;;8.36;100.00
79481;BME280;68944;48.262;14.208;2024-03-23T13:00:14;97648.41;;;8.10;100.00
79481;BME280;68944;48.262;14.208;2024-03-23T13:02:41;97645.63;;;8.05;100.00
79481;BME280;68944;48.262;14.208;2024-03-23T13:05:07;97638.53;;;8.05;100.00
79481;BME280;68944;48.262;14.208;2024-03-23T13:07:36;97658.16;;;8.10;100.00
79481;BME280;68944;48.262;14.208;2024-03-23T13:10:03;97642.91;;;8.12;100.00
79481;BME280;68944;48.262;14.208;2024-03-23T13:12:29;97664.75;;;8.19;100.00
79481;BME280;68944;48.262;14.208;2024-03-23T13:14:54;97637.78;;;8.17;100.00
79481;BME280;68944;48.262;14.208;2024-03-23T13:17:20;97646.59;;;8.29;100.00
79481;BME280;68944;48.262;14.208;2024-03-23T13:19:46;97659.31;;;8.33;100.00
79481;BME280;68944;48.262;14.208;2024-03-23T13:22:11;97645.38;;;8.44;100.00
79481;BME280;68944;48.262;14.208;2024-03-23T13:24:37;97649.22;;;8.48;100.00
79481;BME280;68944;48.262;14.208;2024-03-23T13:27:03;97648.31;;;8.54;100.00
79481;BME280;68944;48.262;14.208;2024-03-23T13:29:31;97662.53;;;8.53;100.00
79481;BME280;68944;48.262;14.208;2024-03-23T13:31:57;97634.53;;;8.52;100.00
79481;BME280;68944;48.262;14.208;2024-03-23T13:34:22;97630.84;;;8.53;100.00
79481;BME280;68944;48.262;14.208;2024-03-23T13:36:48;97625.78;;;8.52;100.00
79481;BME280;68944;48.262;14.208;2024-03-23T13:39:14;97618.41;;;8.61;100.00
79481;BME280;68944;48.262;14.208;2024-03-23T13:41:42;97617.97;;;8.64;100.00
79481;BME280;68944;48.262;14.208;2024-03-23T13:44:09;97604.88;;;8.69;100.00
79481;BME280;68944;48.262;14.208;2024-03-23T13:46:41;97593.03;;;8.60;100.00